map of KTTA home
Great Circle Mapper logo
KTTA - Airport
Location
City:  Sanford, North Carolina, United States
Name:Raleigh Exec Jetport Airport at Sanford-Lee County
ICAO:KTTA
FAA:TTA

Details
Type:Airport (Airfield)
Use:Public/Civil
Latitude:3534'57"N (35.582444)
Longitude:7906'05"W (-79.101332)
Datum:WGS 1984
Elevation:246 ft (75 m)
Runways:1
Longest:6500 × 100 ft (1981 × 30.5 m), paved

Time
Time Zone:UTC-5 (DST-4)
Local Time:

Weather
METAR:KTTA 291615Z AUTO 32003KT 10SM 25/14 A2996 RMK AO2 T02540143

Related Locations
Nearby:
Farthest:MGV: 11628 mi / 18714 km
Margaret River, WA, AU

Find:

   beyond  
but within

Other Information
Maps:
NOTAMs:
Links:
Sources:

  
flag of United States
flag of North Carolina
  

Sectional Chart

Flight Planning
at skyvector.com

Satellite Image

Google Maps Satellite View

 

Copyright © 2004-2014 Karl L. Swartz. All rights reserved.
The Great Circle Mapper name and logo are trademarks of the Great Circle Mapper.
All other trademarks mentioned herein belong to their respective owners.
Please see credits for attibutions and further copyright information.

  Follow gcmap on Facebook Follow gcmap on Twitter

hCard Microformat

Geo Microformat